Terminal Aerodrome Forecast
Issued by NWS Jackson, MS

Home | Current Version | Previous Version | Text Only | Print | Product List | Glossary On
Versions: 1 2 3 4 5 6 7 8 9 10 11 12 13 14 15 16 17 18 19 20 21 22 23 24
000
FTUS44 KJAN 041301 AAC
TAFGWO
TAF AMD
KGWO 041301Z 0413/0512 VRB06KT 5SM -SHRA FEW015 OVC050
     FM041600 25009KT 6SM -SHRA VCTS SCT030 OVC050CB
     FM042200 19007KT P6SM VCSH SCT030 BKN050 BKN120=

USA.gov is the U.S. government's official web portal to all federal, state and local government web resources and services.